createdAt,value
2022-11-21T00:00:25.067Z,2.61
2022-11-21T00:01:25.010Z,2.63
2022-11-21T00:02:25.054Z,2.61
2022-11-21T00:03:24.985Z,2.61
2022-11-21T00:04:25.231Z,2.60
2022-11-21T00:05:24.957Z,2.60
2022-11-21T00:06:25.005Z,2.58
2022-11-21T00:07:25.020Z,2.55
2022-11-21T00:08:24.936Z,2.55
2022-11-21T00:09:24.923Z,2.54
2022-11-21T00:10:24.907Z,2.55
2022-11-21T00:11:24.904Z,2.55
2022-11-21T00:12:24.915Z,2.57
2022-11-21T00:13:24.875Z,2.57
2022-11-21T00:14:25.071Z,2.60
2022-11-21T00:15:24.873Z,2.58
2022-11-21T00:16:24.845Z,2.58
2022-11-21T00:17:24.859Z,2.60
2022-11-21T00:18:24.966Z,2.61
2022-11-21T00:19:24.803Z,2.61
2022-11-21T00:20:24.823Z,2.61
2022-11-21T00:21:24.814Z,2.61
2022-11-21T00:22:24.784Z,2.57
2022-11-21T00:23:24.765Z,2.55
2022-11-21T00:24:25.085Z,2.54
2022-11-21T00:25:24.751Z,2.54
2022-11-21T00:26:24.743Z,2.54
2022-11-21T00:27:24.734Z,2.54
2022-11-21T00:28:24.722Z,2.54
2022-11-21T00:29:24.721Z,2.53
2022-11-21T00:30:24.731Z,2.54
2022-11-21T00:31:24.701Z,2.51
2022-11-21T00:32:24.681Z,2.51
2022-11-21T00:33:24.671Z,2.51
2022-11-21T00:34:24.782Z,2.51
2022-11-21T00:35:24.643Z,2.51
2022-11-21T00:36:24.693Z,2.51
2022-11-21T00:37:24.651Z,2.53
2022-11-21T00:38:24.642Z,2.53
2022-11-21T00:39:24.650Z,2.53
2022-11-21T00:40:24.601Z,2.54
2022-11-21T00:41:24.578Z,2.53
2022-11-21T00:42:24.598Z,2.54
2022-11-21T00:43:24.560Z,2.53
2022-11-21T00:44:24.883Z,2.51
2022-11-21T00:45:24.820Z,2.53
2022-11-21T00:46:24.547Z,2.51
2022-11-21T00:47:24.519Z,2.51
2022-11-21T00:48:24.517Z,2.53
2022-11-21T00:49:24.537Z,2.51
2022-11-21T00:50:24.502Z,2.51
2022-11-21T00:51:24.499Z,2.51
2022-11-21T00:52:24.471Z,2.51
2022-11-21T00:53:24.499Z,2.51
2022-11-21T00:54:24.669Z,2.51
2022-11-21T00:55:24.438Z,2.53
2022-11-21T00:56:24.428Z,2.53
2022-11-21T00:57:24.412Z,2.51
2022-11-21T00:58:24.408Z,2.53
2022-11-21T00:59:24.419Z,2.51
2022-11-21T01:00:24.381Z,2.51
2022-11-21T01:01:24.434Z,2.47
2022-11-21T01:02:24.357Z,2.48
2022-11-21T01:03:24.347Z,2.47
2022-11-21T01:04:24.473Z,2.47
2022-11-21T01:05:24.376Z,2.47
2022-11-21T01:06:24.317Z,2.47
2022-11-21T01:07:24.321Z,2.43
2022-11-21T01:08:24.317Z,2.43
2022-11-21T01:09:24.276Z,2.42
2022-11-21T01:10:24.300Z,2.40
2022-11-21T01:11:24.308Z,2.39
2022-11-21T01:12:24.256Z,2.40
2022-11-21T01:13:24.246Z,2.42
2022-11-21T01:14:24.282Z,2.39
2022-11-21T01:15:24.217Z,2.39
2022-11-21T01:16:24.217Z,2.36
2022-11-21T01:17:24.246Z,2.35
2022-11-21T01:18:24.195Z,2.35
2022-11-21T01:19:24.185Z,2.35
2022-11-21T01:20:24.224Z,2.33
2022-11-21T01:21:24.155Z,2.33
2022-11-21T01:22:24.146Z,2.33
2022-11-21T01:23:24.143Z,2.33
2022-11-21T01:24:24.261Z,2.36
2022-11-21T01:25:24.146Z,2.36
2022-11-21T01:26:24.105Z,2.36
2022-11-21T01:27:24.094Z,2.39
2022-11-21T01:28:24.092Z,2.39
2022-11-21T01:29:24.073Z,2.39
2022-11-21T01:30:24.072Z,2.42
2022-11-21T01:31:24.092Z,2.42
2022-11-21T01:32:24.047Z,2.42
2022-11-21T01:33:24.033Z,2.43
2022-11-21T01:34:24.066Z,2.43
2022-11-21T01:35:24.005Z,2.43
2022-11-21T01:36:24.000Z,2.47
2022-11-21T01:37:24.022Z,2.47
2022-11-21T01:38:23.973Z,2.48
2022-11-21T01:39:23.963Z,2.47
2022-11-21T01:40:23.969Z,2.48
2022-11-21T01:41:23.942Z,2.50
2022-11-21T01:42:23.932Z,2.47
2022-11-21T01:43:23.952Z,2.45
2022-11-21T01:44:23.911Z,2.43
2022-11-21T01:45:23.903Z,2.43
2022-11-21T01:46:23.894Z,2.42
2022-11-21T01:47:23.909Z,2.42
2022-11-21T01:48:23.953Z,2.40
2022-11-21T01:49:23.851Z,2.42
2022-11-21T01:50:23.891Z,2.40
2022-11-21T01:51:23.835Z,2.40
2022-11-21T01:52:23.832Z,2.40
2022-11-21T01:53:23.812Z,2.43
2022-11-21T01:54:23.808Z,2.43
2022-11-21T01:55:23.813Z,2.43
2022-11-21T01:56:23.878Z,2.43
2022-11-21T01:57:23.792Z,2.43
2022-11-21T01:58:23.801Z,2.43
2022-11-21T01:59:23.750Z,2.45
2022-11-21T02:00:23.800Z,2.47
2022-11-21T02:01:23.862Z,2.45
2022-11-21T02:02:23.751Z,2.45
2022-11-21T02:03:23.707Z,2.45
2022-11-21T02:04:23.701Z,2.45
2022-11-21T02:05:23.679Z,2.45
2022-11-21T02:06:23.719Z,2.47
2022-11-21T02:07:23.678Z,2.45
2022-11-21T02:08:23.659Z,2.45
2022-11-21T02:09:23.638Z,2.45
2022-11-21T02:10:23.668Z,2.43
2022-11-21T02:11:23.625Z,2.43
2022-11-21T02:12:23.661Z,2.40
2022-11-21T02:13:23.597Z,2.43
2022-11-21T02:14:23.587Z,2.42
2022-11-21T02:15:23.634Z,2.43
2022-11-21T02:16:23.574Z,2.43
2022-11-21T02:17:23.557Z,2.45
2022-11-21T02:18:23.546Z,2.45
2022-11-21T02:19:23.535Z,2.43
2022-11-21T02:20:23.591Z,2.43
2022-11-21T02:21:23.548Z,2.45
2022-11-21T02:22:23.508Z,2.43
2022-11-21T02:23:23.495Z,2.45
2022-11-21T02:24:23.486Z,2.45
2022-11-21T02:25:23.467Z,2.43
2022-11-21T02:26:23.495Z,2.45
2022-11-21T02:27:23.445Z,2.45
2022-11-21T02:28:23.474Z,2.45
2022-11-21T02:29:23.445Z,2.45
2022-11-21T02:30:23.419Z,2.47
2022-11-21T02:31:23.405Z,2.47
2022-11-21T02:32:23.445Z,2.48
2022-11-21T02:33:23.385Z,2.47
2022-11-21T02:34:23.381Z,2.47
2022-11-21T02:35:23.366Z,2.48
2022-11-21T02:36:23.357Z,2.47
2022-11-21T02:37:23.363Z,2.47
2022-11-21T02:38:23.329Z,2.47
2022-11-21T02:39:23.313Z,2.47
2022-11-21T02:41:33.334Z,2.48
2022-11-21T02:42:35.022Z,2.48
2022-11-21T02:43:33.283Z,2.47
2022-11-21T02:44:33.294Z,2.48
2022-11-21T02:45:33.263Z,2.50
2022-11-21T02:46:33.243Z,2.48
2022-11-21T02:47:33.243Z,2.48
2022-11-21T02:48:33.423Z,2.50
2022-11-21T02:49:33.215Z,2.47
2022-11-21T02:50:33.233Z,2.47
2022-11-21T02:51:33.203Z,2.48
2022-11-21T02:52:33.182Z,2.48
2022-11-21T02:53:33.172Z,2.48
2022-11-21T02:54:33.212Z,2.47
2022-11-21T02:55:33.161Z,2.45
2022-11-21T02:56:33.157Z,2.47
2022-11-21T02:57:33.160Z,2.48
2022-11-21T02:58:33.121Z,2.47
2022-11-21T02:59:33.131Z,2.48
2022-11-21T03:00:33.121Z,2.48
2022-11-21T03:01:33.164Z,2.48
2022-11-21T03:02:33.125Z,2.47
2022-11-21T03:03:33.067Z,2.47
2022-11-21T03:04:33.079Z,2.45
2022-11-21T03:05:33.062Z,2.45
2022-11-21T03:06:33.051Z,2.43
2022-11-21T03:07:33.048Z,2.40
2022-11-21T03:08:33.038Z,2.40
2022-11-21T03:09:32.999Z,2.40
2022-11-21T03:10:32.979Z,2.39
2022-11-21T03:11:33.130Z,2.39
2022-11-21T03:12:32.959Z,2.39
2022-11-21T03:13:32.999Z,2.37
2022-11-21T03:14:33.019Z,2.39
2022-11-21T03:15:32.938Z,2.39
2022-11-21T03:16:32.927Z,2.36
2022-11-21T03:17:32.948Z,2.37
2022-11-21T03:18:32.917Z,2.36
2022-11-21T03:19:32.888Z,2.39
2022-11-21T03:20:32.877Z,2.36
2022-11-21T03:21:32.878Z,2.37
2022-11-21T03:22:32.890Z,2.37
2022-11-21T03:23:32.848Z,2.37
2022-11-21T03:24:32.837Z,2.36
2022-11-21T03:25:32.836Z,2.37
2022-11-21T03:26:32.876Z,2.37
2022-11-21T03:27:32.807Z,2.37
2022-11-21T03:28:32.795Z,2.39
2022-11-21T03:29:32.806Z,2.37
2022-11-21T03:30:32.768Z,2.39
2022-11-21T03:31:32.758Z,2.40
2022-11-21T03:32:32.809Z,2.42
2022-11-21T03:33:32.745Z,2.42
2022-11-21T03:34:32.766Z,2.43
2022-11-21T03:35:32.773Z,2.42
2022-11-21T03:36:32.704Z,2.43
2022-11-21T03:37:32.695Z,2.42
2022-11-21T03:38:32.686Z,2.42
2022-11-21T03:39:32.676Z,2.42
2022-11-21T03:40:32.665Z,2.42
2022-11-21T03:41:32.712Z,2.40
2022-11-21T03:42:32.647Z,2.40
2022-11-21T03:43:32.654Z,2.40
2022-11-21T03:44:32.618Z,2.37
2022-11-21T03:45:32.675Z,2.39
2022-11-21T03:46:32.593Z,2.39
2022-11-21T03:47:32.594Z,2.39
2022-11-21T03:48:32.574Z,2.39
2022-11-21T03:49:32.565Z,2.37
2022-11-21T03:50:32.553Z,2.36
2022-11-21T03:51:32.581Z,2.37
2022-11-21T03:52:32.534Z,2.37
2022-11-21T03:53:32.564Z,2.37
2022-11-21T03:54:32.543Z,2.39
2022-11-21T03:55:32.513Z,2.40
2022-11-21T03:56:32.501Z,2.40
2022-11-21T03:57:32.533Z,2.40
2022-11-21T03:58:32.474Z,2.40
2022-11-21T03:59:32.491Z,2.40
2022-11-21T04:00:32.451Z,2.42
2022-11-21T04:01:36.418Z,2.43
2022-11-21T04:02:32.463Z,2.45
2022-11-21T04:03:32.423Z,2.43
2022-11-21T04:04:32.462Z,2.45
2022-11-21T04:05:32.411Z,2.45
2022-11-21T04:06:32.390Z,2.45
2022-11-21T04:07:32.417Z,2.45
2022-11-21T04:08:32.371Z,2.48
2022-11-21T04:09:32.631Z,2.47
2022-11-21T04:10:32.340Z,2.48
2022-11-21T04:11:32.340Z,2.50
2022-11-21T04:12:32.320Z,2.51
2022-11-21T04:13:32.341Z,2.51
2022-11-21T04:14:32.301Z,2.53
2022-11-21T04:15:32.450Z,2.53
2022-11-21T04:16:32.279Z,2.53
2022-11-21T04:17:32.269Z,2.51
2022-11-21T04:18:32.289Z,2.57
2022-11-21T04:19:32.252Z,2.60
2022-11-21T04:20:32.270Z,2.61
2022-11-21T04:21:32.231Z,2.65
2022-11-21T04:22:32.270Z,2.66
2022-11-21T04:23:32.218Z,2.68
2022-11-21T04:24:32.232Z,2.68
2022-11-21T04:25:32.193Z,2.68
2022-11-21T04:26:32.184Z,2.71
2022-11-21T04:27:32.218Z,2.69
2022-11-21T04:28:32.160Z,2.69
2022-11-21T04:29:32.160Z,2.71
2022-11-21T04:30:32.139Z,2.69
2022-11-21T04:31:32.139Z,2.71
2022-11-21T04:32:32.119Z,2.71
2022-11-21T04:33:32.159Z,2.72
2022-11-21T04:34:32.098Z,2.72
2022-11-21T04:35:32.089Z,2.72
2022-11-21T04:36:32.175Z,2.72
2022-11-21T04:37:32.068Z,2.73
2022-11-21T04:38:32.062Z,2.73
2022-11-21T04:39:32.119Z,2.73
2022-11-21T04:40:32.029Z,2.72
2022-11-21T04:41:32.028Z,2.72
2022-11-21T04:42:32.014Z,2.73
2022-11-21T04:43:32.007Z,2.73
2022-11-21T04:44:31.988Z,2.72
2022-11-21T04:45:32.017Z,2.73
2022-11-21T04:46:32.018Z,2.73
2022-11-21T04:47:31.980Z,2.73
2022-11-21T04:48:31.947Z,2.76
2022-11-21T04:49:31.940Z,2.78
2022-11-21T04:50:31.926Z,2.76
2022-11-21T04:51:31.957Z,2.75
2022-11-21T04:52:31.908Z,2.73
2022-11-21T04:53:31.898Z,2.73
2022-11-21T04:54:31.940Z,2.73
2022-11-21T04:55:31.877Z,2.73
2022-11-21T04:56:31.877Z,2.71
2022-11-21T04:57:31.897Z,2.71
2022-11-21T04:58:31.861Z,2.69
2022-11-21T04:59:31.838Z,2.71
2022-11-21T05:00:31.827Z,2.71
2022-11-21T05:01:31.873Z,2.73
2022-11-21T05:02:31.804Z,2.73
2022-11-21T05:03:31.794Z,2.76
2022-11-21T05:04:31.775Z,2.75
2022-11-21T05:05:31.796Z,2.79
2022-11-21T05:06:31.795Z,2.78
2022-11-21T05:07:31.790Z,2.78
2022-11-21T05:08:31.736Z,2.76
2022-11-21T05:09:31.732Z,2.73
2022-11-21T05:10:31.714Z,2.73
2022-11-21T05:11:31.704Z,2.73
2022-11-21T05:12:31.765Z,2.75
2022-11-21T05:13:31.693Z,2.76
2022-11-21T05:14:31.673Z,2.76
2022-11-21T05:15:31.665Z,2.79
2022-11-21T05:16:31.653Z,2.79
2022-11-21T05:17:31.683Z,2.81
2022-11-21T05:18:31.633Z,2.78
2022-11-21T05:19:31.663Z,2.75
2022-11-21T05:20:36.593Z,2.75
2022-11-21T05:21:32.662Z,2.76
2022-11-21T05:22:31.593Z,2.75
2022-11-21T05:23:31.589Z,2.78
2022-11-21T05:24:31.570Z,2.78
2022-11-21T05:25:31.602Z,2.79
2022-11-21T05:26:31.551Z,2.76
2022-11-21T05:27:31.541Z,2.72
2022-11-21T05:28:31.521Z,2.71
2022-11-21T05:29:31.542Z,2.72
2022-11-21T05:30:31.531Z,2.73
2022-11-21T05:31:31.500Z,2.72
2022-11-21T05:32:31.483Z,2.76
2022-11-21T05:33:31.482Z,2.79
2022-11-21T05:34:31.549Z,2.81
2022-11-21T05:35:31.481Z,2.81
2022-11-21T05:36:31.460Z,2.81
2022-11-21T05:37:31.461Z,2.82
2022-11-21T05:38:31.421Z,2.82
2022-11-21T05:39:31.411Z,2.86
2022-11-21T05:40:31.439Z,2.87
2022-11-21T05:41:31.397Z,2.89
2022-11-21T05:42:31.380Z,2.89
2022-11-21T05:43:31.410Z,2.90
2022-11-21T05:44:31.532Z,2.91
2022-11-21T05:45:32.438Z,2.96
2022-11-21T05:46:31.342Z,2.97
2022-11-21T05:47:31.329Z,2.96
2022-11-21T05:48:31.310Z,2.97
2022-11-21T05:49:31.339Z,2.96
2022-11-21T05:50:31.320Z,2.96
2022-11-21T05:51:31.320Z,2.93
2022-11-21T05:52:31.269Z,2.93
2022-11-21T05:53:31.289Z,2.91
2022-11-21T05:54:31.286Z,2.89
2022-11-21T05:55:31.248Z,2.90
2022-11-21T05:56:31.239Z,2.89
2022-11-21T05:57:31.232Z,2.91
2022-11-21T05:58:31.238Z,2.91
2022-11-21T05:59:31.199Z,2.94
2022-11-21T06:00:31.186Z,2.96
2022-11-21T06:01:31.247Z,2.96
2022-11-21T06:02:31.167Z,2.99
2022-11-21T06:03:31.207Z,3.02
2022-11-21T06:04:31.179Z,3.05
2022-11-21T06:05:31.138Z,3.05
2022-11-21T06:06:31.129Z,3.05
2022-11-21T06:07:31.182Z,3.04
2022-11-21T06:08:31.318Z,3.04
2022-11-21T06:09:31.096Z,3.04
2022-11-21T06:10:31.086Z,3.04
2022-11-21T06:11:31.067Z,3.00
2022-11-21T06:12:31.077Z,3.00
2022-11-21T06:13:31.227Z,3.00
2022-11-21T06:14:31.110Z,3.00
2022-11-21T06:15:31.073Z,2.99
2022-11-21T06:16:31.026Z,2.97
2022-11-21T06:17:31.005Z,2.96
2022-11-21T06:18:31.004Z,2.91
2022-11-21T06:19:30.986Z,2.93
2022-11-21T06:20:30.984Z,2.91
2022-11-21T06:21:31.008Z,2.90
2022-11-21T06:22:30.962Z,2.91
2022-11-21T06:23:30.952Z,2.93
2022-11-21T06:24:31.056Z,2.93
2022-11-21T06:25:30.925Z,2.96
2022-11-21T06:26:30.915Z,2.96
2022-11-21T06:27:30.904Z,3.00
2022-11-21T06:28:30.902Z,3.00
2022-11-21T06:29:30.885Z,2.99
2022-11-21T06:30:30.913Z,3.00
2022-11-21T06:31:30.867Z,2.99
2022-11-21T06:32:30.871Z,2.97
2022-11-21T06:33:30.843Z,2.97
2022-11-21T06:34:31.144Z,2.97
2022-11-21T06:35:30.822Z,2.96
2022-11-21T06:36:30.853Z,2.96
2022-11-21T06:37:30.802Z,2.94
2022-11-21T06:38:30.783Z,2.97
2022-11-21T06:39:30.805Z,2.96
2022-11-21T06:40:30.774Z,2.99
2022-11-21T06:41:30.757Z,2.97
2022-11-21T06:42:30.740Z,3.00
2022-11-21T06:43:30.731Z,3.02
2022-11-21T06:44:31.003Z,3.04
2022-11-21T06:45:30.800Z,3.04
2022-11-21T06:46:30.700Z,3.02
2022-11-21T06:47:30.692Z,3.02
2022-11-21T06:48:30.731Z,3.05
2022-11-21T06:49:30.671Z,3.07
2022-11-21T06:50:30.660Z,3.08
2022-11-21T06:51:30.651Z,3.08
2022-11-21T06:52:30.899Z,3.08
2022-11-21T06:53:30.631Z,3.05
2022-11-21T06:54:30.764Z,3.05
2022-11-21T06:55:30.650Z,3.05
2022-11-21T06:56:30.611Z,3.07
2022-11-21T06:57:30.590Z,3.05
2022-11-21T06:58:30.685Z,3.07
2022-11-21T06:59:30.579Z,3.08
2022-11-21T07:00:30.604Z,3.08
2022-11-21T07:01:30.661Z,3.09
2022-11-21T07:02:30.541Z,3.09
2022-11-21T07:03:30.540Z,3.09
2022-11-21T07:04:30.734Z,3.12
2022-11-21T07:05:30.511Z,3.12
2022-11-21T07:06:30.500Z,3.12
2022-11-21T07:07:30.612Z,3.12
2022-11-21T07:08:30.480Z,3.14
2022-11-21T07:09:34.244Z,3.14
2022-11-21T07:10:30.606Z,3.17
2022-11-21T07:11:30.460Z,3.18
2022-11-21T07:12:30.639Z,3.20
2022-11-21T07:13:30.417Z,3.17
2022-11-21T07:14:30.418Z,3.15
2022-11-21T07:15:30.427Z,3.14
2022-11-21T07:16:30.400Z,3.14
2022-11-21T07:17:30.386Z,3.15
2022-11-21T07:18:30.428Z,3.15
2022-11-21T07:19:30.545Z,3.17
2022-11-21T07:20:30.369Z,3.14
2022-11-21T07:21:30.337Z,3.15
2022-11-21T07:22:30.349Z,3.14
2022-11-21T07:23:30.347Z,3.15
2022-11-21T07:24:30.506Z,3.17
2022-11-21T07:25:35.245Z,3.17
2022-11-21T07:26:31.289Z,3.17
2022-11-21T07:27:30.276Z,3.14
2022-11-21T07:28:30.271Z,3.14
2022-11-21T07:29:30.615Z,3.14
2022-11-21T07:30:33.056Z,3.14
2022-11-21T07:31:30.248Z,3.15
2022-11-21T07:32:30.257Z,3.17
2022-11-21T07:33:30.206Z,3.17
2022-11-21T07:34:30.267Z,3.17
2022-11-21T07:35:30.186Z,3.20
2022-11-21T07:36:32.509Z,3.25
2022-11-21T07:37:30.165Z,3.26
2022-11-21T07:38:30.225Z,3.27
2022-11-21T07:39:30.718Z,3.26
2022-11-21T07:40:30.169Z,3.25
2022-11-21T07:41:30.135Z,3.23
2022-11-21T07:42:30.125Z,3.23
2022-11-21T07:43:30.120Z,3.26
2022-11-21T07:44:30.125Z,3.23
2022-11-21T07:45:30.085Z,3.22
2022-11-21T07:46:30.104Z,3.20
2022-11-21T07:47:30.064Z,3.17
2022-11-21T07:48:30.073Z,3.23
2022-11-21T07:49:30.532Z,3.27
2022-11-21T07:50:30.044Z,3.35
2022-11-21T07:51:30.029Z,3.49
2022-11-21T07:52:30.016Z,3.59
2022-11-21T07:53:30.005Z,3.64
2022-11-21T07:54:29.994Z,3.81
2022-11-21T07:55:30.003Z,3.91
2022-11-21T07:56:29.998Z,3.94
2022-11-21T07:57:29.993Z,3.96
2022-11-21T07:58:29.982Z,3.88
2022-11-21T07:59:30.160Z,3.81
2022-11-21T08:00:29.943Z,3.76
2022-11-21T08:01:29.948Z,3.72
2022-11-21T08:02:29.911Z,3.69
2022-11-21T08:03:29.912Z,3.66
2022-11-21T08:04:29.945Z,3.66
2022-11-21T08:05:29.893Z,3.66
2022-11-21T08:06:29.873Z,3.67
2022-11-21T08:07:31.630Z,3.67
2022-11-21T08:08:29.850Z,3.70
2022-11-21T08:09:30.038Z,3.70
2022-11-21T08:10:29.833Z,3.72
2022-11-21T08:11:29.852Z,3.73
2022-11-21T08:12:29.832Z,3.73
2022-11-21T08:13:29.811Z,3.72
2022-11-21T08:14:29.790Z,3.73
2022-11-21T08:15:29.805Z,3.73
2022-11-21T08:16:29.762Z,3.73
2022-11-21T08:17:29.821Z,3.73
2022-11-21T08:18:29.772Z,3.73
2022-11-21T08:19:30.071Z,3.72
2022-11-21T08:20:29.750Z,3.73
2022-11-21T08:21:29.721Z,3.73
2022-11-21T08:22:29.711Z,3.76
2022-11-21T08:23:33.164Z,3.80
2022-11-21T08:24:29.680Z,3.85
2022-11-21T08:25:29.677Z,3.91
2022-11-21T08:26:29.701Z,3.98
2022-11-21T08:27:29.651Z,4.00
2022-11-21T08:28:29.640Z,4.03
2022-11-21T08:29:29.887Z,4.06
2022-11-21T08:30:29.629Z,4.05
2022-11-21T08:31:29.621Z,4.06
2022-11-21T08:32:29.639Z,4.06
2022-11-21T08:33:29.590Z,4.08
2022-11-21T08:34:29.571Z,4.06
2022-11-21T08:35:29.549Z,4.03
2022-11-21T08:36:29.549Z,4.02
2022-11-21T08:37:29.559Z,4.02
2022-11-21T08:38:29.581Z,4.00
2022-11-21T08:39:34.981Z,4.00
2022-11-21T08:40:36.561Z,3.99
2022-11-21T08:41:29.491Z,3.98
2022-11-21T08:42:29.498Z,3.98
2022-11-21T08:43:29.511Z,3.96
2022-11-21T08:44:29.585Z,3.96
2022-11-21T08:45:29.454Z,3.94
2022-11-21T08:46:29.503Z,3.94
2022-11-21T08:47:29.480Z,3.94
2022-11-21T08:48:29.424Z,3.92
2022-11-21T08:49:29.420Z,3.92
2022-11-21T08:50:29.408Z,3.94
2022-11-21T08:51:29.402Z,3.94
2022-11-21T08:52:29.391Z,3.91
2022-11-21T08:53:29.410Z,3.91
2022-11-21T08:54:29.720Z,3.94
2022-11-21T08:55:29.360Z,3.96
2022-11-21T08:56:29.349Z,3.98
2022-11-21T08:57:29.378Z,4.02
2022-11-21T08:58:29.319Z,4.02
2022-11-21T08:59:29.320Z,4.03
2022-11-21T09:00:29.300Z,4.05
2022-11-21T09:01:29.304Z,4.06
2022-11-21T09:02:29.290Z,4.09
2022-11-21T09:03:31.398Z,4.10
2022-11-21T09:04:29.432Z,4.12
2022-11-21T09:05:29.240Z,4.13
2022-11-21T09:06:29.269Z,4.18
2022-11-21T09:07:29.268Z,4.20
2022-11-21T09:08:29.229Z,4.20
2022-11-21T09:09:29.230Z,4.23
2022-11-21T09:10:29.244Z,4.26
2022-11-21T09:11:29.188Z,4.27
2022-11-21T09:12:29.217Z,4.27
2022-11-21T09:13:29.158Z,4.30
2022-11-21T09:14:29.420Z,4.28
2022-11-21T09:15:29.143Z,4.28
2022-11-21T09:16:29.168Z,4.28
2022-11-21T09:17:29.127Z,4.30
2022-11-21T09:18:29.109Z,4.31
2022-11-21T09:19:29.500Z,4.31
2022-11-21T09:20:29.184Z,4.31
2022-11-21T09:21:29.108Z,4.34
2022-11-21T09:22:29.078Z,4.31
2022-11-21T09:23:29.086Z,4.31
2022-11-21T09:24:29.045Z,4.30
2022-11-21T09:25:29.064Z,4.31
2022-11-21T09:26:29.024Z,4.31
2022-11-21T09:27:29.016Z,4.31
2022-11-21T09:28:29.005Z,4.35
2022-11-21T09:29:29.283Z,4.35
2022-11-21T09:30:28.987Z,4.36
2022-11-21T09:31:29.013Z,4.36
2022-11-21T09:32:28.954Z,4.38
2022-11-21T09:33:28.947Z,4.36
2022-11-21T09:34:29.191Z,4.36
2022-11-21T09:35:28.925Z,4.38
2022-11-21T09:36:28.924Z,4.34
2022-11-21T09:37:28.964Z,4.35
2022-11-21T09:38:28.894Z,4.35
2022-11-21T09:39:29.180Z,4.35
2022-11-21T09:40:28.884Z,4.36
2022-11-21T09:41:28.868Z,4.36
2022-11-21T09:42:28.895Z,4.36
2022-11-21T09:43:29.023Z,4.38
2022-11-21T09:44:29.090Z,4.42
2022-11-21T09:45:28.856Z,4.42
2022-11-21T09:46:28.902Z,4.43
2022-11-21T09:47:28.814Z,4.45
2022-11-21T09:48:28.792Z,4.43
2022-11-21T09:49:29.109Z,4.42
2022-11-21T09:50:28.787Z,4.42
2022-11-21T09:51:28.791Z,4.43
2022-11-21T09:52:28.763Z,4.46
2022-11-21T09:53:33.218Z,4.46
2022-11-21T09:54:28.949Z,4.43
2022-11-21T09:55:28.719Z,4.45
2022-11-21T09:56:28.740Z,4.42
2022-11-21T09:57:34.594Z,4.43
2022-11-21T09:58:29.708Z,4.42
2022-11-21T09:59:28.672Z,4.42
2022-11-21T10:00:28.745Z,4.42
2022-11-21T10:01:30.377Z,4.43
2022-11-21T10:02:29.613Z,4.45
2022-11-21T10:03:28.630Z,4.48
2022-11-21T10:04:28.937Z,4.49
2022-11-21T10:05:28.661Z,4.53
2022-11-21T10:06:28.602Z,4.54
2022-11-21T10:07:28.665Z,4.54
2022-11-21T10:08:28.581Z,4.56
2022-11-21T10:09:28.566Z,4.56
2022-11-21T10:10:28.569Z,4.56
2022-11-21T10:11:31.251Z,4.59
2022-11-21T10:12:28.542Z,4.59
2022-11-21T10:13:28.550Z,4.57
2022-11-21T10:14:28.939Z,4.59
2022-11-21T10:15:28.574Z,4.57
2022-11-21T10:16:28.497Z,4.57
2022-11-21T10:17:28.487Z,4.59
2022-11-21T10:18:28.470Z,4.60
2022-11-21T10:19:28.470Z,4.61
2022-11-21T10:20:28.457Z,4.61
2022-11-21T10:21:28.469Z,4.63
2022-11-21T10:22:28.429Z,4.63
2022-11-21T10:23:28.430Z,4.64
2022-11-21T10:24:28.688Z,4.66
2022-11-21T10:25:28.470Z,4.67
2022-11-21T10:26:28.389Z,4.69
2022-11-21T10:27:28.408Z,4.69
2022-11-21T10:28:28.390Z,4.69
2022-11-21T10:29:28.368Z,4.71
2022-11-21T10:30:28.472Z,4.71
2022-11-21T10:31:28.428Z,4.71
2022-11-21T10:32:28.368Z,4.72
2022-11-21T10:33:28.329Z,4.74
2022-11-21T10:34:28.646Z,4.75
2022-11-21T10:35:28.407Z,4.77
2022-11-21T10:36:28.286Z,4.79
2022-11-21T10:37:28.269Z,4.82
2022-11-21T10:38:28.256Z,4.83
2022-11-21T10:39:28.289Z,4.86
2022-11-21T10:40:28.268Z,4.89
2022-11-21T10:41:28.242Z,4.91
2022-11-21T10:42:28.217Z,4.93
2022-11-21T10:43:28.210Z,4.96
2022-11-21T10:44:28.426Z,4.97
2022-11-21T10:45:28.218Z,5.00
2022-11-21T10:46:28.166Z,5.03
2022-11-21T10:47:28.187Z,5.03
2022-11-21T10:48:28.157Z,5.04
2022-11-21T10:49:28.171Z,5.07
2022-11-21T10:50:28.187Z,5.09
2022-11-21T10:51:28.127Z,5.14
2022-11-21T10:52:28.107Z,5.14
2022-11-21T10:53:28.134Z,5.15
2022-11-21T10:54:28.498Z,5.18
2022-11-21T10:55:28.115Z,5.19
2022-11-21T10:56:28.066Z,5.19
2022-11-21T10:57:28.125Z,5.24
2022-11-21T10:58:28.108Z,5.25
2022-11-21T10:59:30.726Z,5.25
2022-11-21T11:00:28.016Z,5.27
2022-11-21T11:01:28.074Z,5.30
2022-11-21T11:02:28.025Z,5.32
2022-11-21T11:03:27.995Z,5.32
2022-11-21T11:04:29.673Z,5.34
2022-11-21T11:05:27.975Z,5.39
2022-11-21T11:06:27.954Z,5.39
2022-11-21T11:07:28.047Z,5.40
2022-11-21T11:08:27.954Z,5.40
2022-11-21T11:09:27.926Z,5.41
2022-11-21T11:10:33.253Z,5.41
2022-11-21T11:11:27.911Z,5.44
2022-11-21T11:12:27.914Z,5.48
2022-11-21T11:14:29.158Z,5.52
2022-11-21T11:15:27.867Z,5.52
2022-11-21T11:16:27.885Z,5.55
2022-11-21T11:17:27.873Z,5.57
2022-11-21T11:18:27.824Z,5.58
2022-11-21T11:19:35.374Z,5.61
2022-11-21T11:20:28.802Z,5.65
2022-11-21T11:21:27.804Z,5.67
2022-11-21T11:22:27.790Z,5.73
2022-11-21T11:23:27.782Z,5.79
2022-11-21T11:24:27.922Z,5.80
2022-11-21T11:25:27.761Z,5.82
2022-11-21T11:26:27.754Z,5.87
2022-11-21T11:27:27.731Z,5.91
2022-11-21T11:28:27.721Z,5.91
2022-11-21T11:29:28.024Z,5.95
2022-11-21T11:30:29.410Z,6.00
2022-11-21T11:31:27.708Z,6.03
2022-11-21T11:32:27.690Z,6.05
2022-11-21T11:33:27.681Z,6.05
2022-11-21T11:34:27.691Z,6.05
2022-11-21T11:35:27.682Z,6.05
2022-11-21T11:36:27.691Z,6.06
2022-11-21T11:37:27.651Z,6.09
2022-11-21T11:38:27.661Z,6.06
2022-11-21T11:39:27.895Z,6.05
2022-11-21T11:40:27.608Z,6.06
2022-11-21T11:41:27.590Z,6.06
2022-11-21T11:42:27.620Z,6.06
2022-11-21T11:43:27.588Z,6.08
2022-11-21T11:44:27.862Z,6.11
2022-11-21T11:45:27.585Z,6.11
2022-11-21T11:46:27.531Z,6.12
2022-11-21T11:47:27.532Z,6.13
2022-11-21T11:48:27.556Z,6.15
2022-11-21T11:49:27.501Z,6.18
2022-11-21T11:50:27.500Z,6.19
2022-11-21T11:51:27.488Z,6.24
2022-11-21T11:52:27.467Z,6.27
2022-11-21T11:53:27.465Z,6.28
2022-11-21T11:54:27.499Z,6.30
2022-11-21T11:55:27.438Z,6.31
2022-11-21T11:56:27.419Z,6.34
2022-11-21T11:57:27.419Z,6.37
2022-11-21T11:58:27.437Z,6.38
2022-11-21T11:59:27.654Z,6.42
2022-11-21T12:00:27.392Z,6.43
2022-11-21T12:01:30.131Z,6.46
2022-11-21T12:02:27.415Z,6.49
2022-11-21T12:03:27.362Z,6.50
2022-11-21T12:04:27.665Z,6.53
2022-11-21T12:05:27.347Z,6.53
2022-11-21T12:06:46.842Z,6.56
2022-11-21T12:08:44.017Z,6.63
2022-11-21T12:09:28.698Z,6.63
2022-11-21T12:10:27.269Z,6.64
2022-11-21T12:11:27.305Z,6.65
2022-11-21T12:12:27.265Z,6.65
2022-11-21T12:13:27.246Z,6.67
2022-11-21T12:14:27.226Z,6.68
2022-11-21T12:15:27.268Z,6.68
2022-11-21T12:16:27.212Z,6.70
2022-11-21T12:17:27.217Z,6.73
2022-11-21T12:18:27.324Z,6.73
2022-11-21T12:19:27.644Z,6.74
2022-11-21T12:20:27.166Z,6.78
2022-11-21T12:21:27.207Z,6.81
2022-11-21T12:22:27.163Z,6.82
2022-11-21T12:23:27.185Z,6.85
2022-11-21T12:24:27.146Z,6.89
2022-11-21T12:25:27.152Z,6.92
2022-11-21T12:26:27.106Z,6.93
2022-11-21T12:27:27.135Z,6.97
2022-11-21T12:28:27.087Z,6.99
2022-11-21T12:29:27.499Z,7.00
2022-11-21T12:30:27.074Z,7.01
2022-11-21T12:31:27.078Z,7.03
2022-11-21T12:32:27.047Z,7.04
2022-11-21T12:33:27.103Z,7.06
2022-11-21T12:34:27.025Z,7.07
2022-11-21T12:35:27.019Z,7.08
2022-11-21T12:36:27.005Z,7.10
2022-11-21T12:37:27.002Z,7.11
2022-11-21T12:38:26.997Z,7.11
2022-11-21T12:39:27.419Z,7.13
2022-11-21T12:40:26.959Z,7.13
2022-11-21T12:41:26.956Z,7.15
2022-11-21T12:42:26.935Z,7.15
2022-11-21T12:43:26.938Z,7.16
2022-11-21T12:44:26.974Z,7.18
2022-11-21T12:45:26.918Z,7.18
2022-11-21T12:46:26.902Z,7.19
2022-11-21T12:47:26.906Z,7.18
2022-11-21T12:48:26.925Z,7.18
2022-11-21T12:49:27.063Z,7.19
2022-11-21T12:50:26.962Z,7.22
2022-11-21T12:51:26.855Z,7.22
2022-11-21T12:52:26.835Z,7.25
2022-11-21T12:53:26.834Z,7.25
2022-11-21T12:54:26.812Z,7.28
2022-11-21T12:55:30.727Z,7.29
2022-11-21T12:56:29.594Z,7.29
2022-11-21T12:57:26.803Z,7.33
2022-11-21T12:58:26.776Z,7.34
2022-11-21T12:59:27.009Z,7.37
2022-11-21T13:00:26.773Z,7.39
2022-11-21T13:01:26.882Z,7.37
2022-11-21T13:02:26.777Z,7.40
2022-11-21T13:03:26.740Z,7.43
2022-11-21T13:04:26.700Z,7.42
2022-11-21T13:05:26.737Z,7.42
2022-11-21T13:06:26.673Z,7.43
2022-11-21T13:07:26.713Z,7.42
2022-11-21T13:08:26.704Z,7.42
2022-11-21T13:09:27.196Z,7.44
2022-11-21T13:10:26.636Z,7.44
2022-11-21T13:11:26.660Z,7.44
2022-11-21T13:12:26.681Z,7.46
2022-11-21T13:13:26.618Z,7.44
2022-11-21T13:14:26.593Z,7.44
2022-11-21T13:15:26.611Z,7.44
2022-11-21T13:16:26.574Z,7.43
2022-11-21T13:17:26.623Z,7.44
2022-11-21T13:18:26.620Z,7.44
2022-11-21T13:19:26.772Z,7.44
2022-11-21T13:20:26.583Z,7.44
2022-11-21T13:21:26.541Z,7.44